Time;durP1;ratioP1;P1;durP2;ratioP2;P2;SDS_P1;SDS_P2;PMS_P1;PMS_P2;Temp;Humidity;BMP_temperature;BMP_pressure;BME280_temperature;BME280_humidity;BME280_pressure;Samples;Min_cycle;Max_cycle;Signal;HPM_P1;HPM_P2
2021/08/10 00:01:45;;;;;;;;;;;;;;;20.56;56.25;100873.94;5119259;28;798;-61
2021/08/10 00:04:11;;;;;;;;;;;;;;;20.64;56.52;100882.38;5118945;28;847;-47
2021/08/10 00:06:36;;;;;;;;;;;;;;;20.87;56.71;100873.50;5118311;28;1575;-40
2021/08/10 00:09:02;;;;;;;;;;;;;;;21.03;56.89;100869.38;5119704;28;1971;-41
2021/08/10 00:11:27;;;;;;;;;;;;;;;21.03;57.49;100858.31;5119294;28;938;-56
2021/08/10 00:13:53;;;;;;;;;;;;;;;21.31;57.11;100861.97;5118556;28;827;-61
2021/08/10 00:16:18;;;;;;;;;;;;;;;21.27;57.54;100862.91;5118943;28;851;-48
2021/08/10 00:18:44;;;;;;;;;;;;;;;21.35;57.42;100870.50;5118710;28;847;-62
2021/08/10 00:21:09;;;;;;;;;;;;;;;21.22;57.82;100861.03;5118091;28;962;-63
2021/08/10 00:23:34;;;;;;;;;;;;;;;20.69;59.67;100864.91;5118959;28;988;-62
2021/08/10 00:26:00;;;;;;;;;;;;;;;20.59;59.75;100865.03;5118350;28;1110;-57
2021/08/10 00:28:25;;;;;;;;;;;;;;;20.02;60.22;100863.06;5118380;28;1909;-61
2021/08/10 00:30:51;;;;;;;;;;;;;;;20.76;60.14;100864.53;5118470;28;772;-41
2021/08/10 00:33:16;;;;;;;;;;;;;;;21.19;59.36;100858.88;5100193;28;831;-40
2021/08/10 00:35:42;;;;;;;;;;;;;;;21.40;58.92;100864.03;5099914;28;1255;-59
2021/08/10 00:38:08;;;;;;;;;;;;;;;21.58;58.97;100862.38;5118501;28;744;-40
2021/08/10 00:40:34;;;;;;;;;;;;;;;20.91;61.16;100863.50;5100297;28;1342;-40
2021/08/10 00:43:02;;;;;;;;;;;;;;;20.79;61.94;100855.63;5083379;28;1189;-51
2021/08/10 00:45:27;;;;;;;;;;;;;;;20.45;60.59;100854.72;5118278;28;819;-50
2021/08/10 00:47:53;;;;;;;;;;;;;;;20.50;61.63;100865.72;5118221;28;1915;-61
2021/08/10 00:50:21;;;;;;;;;;;;;;;20.98;62.37;100852.88;5099518;28;1279;-59
2021/08/10 00:52:46;;;;;;;;;;;;;;;21.41;60.32;100860.16;5099391;28;1309;-44
2021/08/10 00:55:13;;;;;;;;;;;;;;;21.35;59.01;100851.94;5118497;28;795;-40
2021/08/10 00:57:40;;;;;;;;;;;;;;;21.16;58.04;100857.53;5083176;28;1469;-43
2021/08/10 01:00:05;;;;;;;;;;;;;;;21.20;55.96;100854.97;5099740;28;1149;-40
2021/08/10 01:02:31;;;;;;;;;;;;;;;21.06;54.76;100854.94;5099909;28;1256;-40
2021/08/10 01:04:57;;;;;;;;;;;;;;;20.90;53.85;100856.31;5098773;28;1120;-40
2021/08/10 01:07:26;;;;;;;;;;;;;;;20.70;53.66;100865.75;5099619;28;1984;-64
2021/08/10 01:09:55;;;;;;;;;;;;;;;20.72;52.63;100855.22;5099901;28;1323;-42
2021/08/10 01:12:44;;;;;;;;;;;;;;;20.62;53.09;100864.44;5099455;28;1386;-42
2021/08/10 01:15:14;;;;;;;;;;;;;;;20.68;54.73;100855.00;5086623;28;1136;-62
2021/08/10 01:17:41;;;;;;;;;;;;;;;21.02;55.78;100853.91;5082784;28;1428;-60
2021/08/10 01:20:26;;;;;;;;;;;;;;;21.25;56.70;100863.19;5098899;28;1534;-61
2021/08/10 01:22:53;;;;;;;;;;;;;;;21.40;57.43;100862.09;5099409;28;1177;-59
2021/08/10 01:25:28;;;;;;;;;;;;;;;20.82;60.15;100866.94;5099668;28;1262;-41
2021/08/10 01:27:54;;;;;;;;;;;;;;;20.67;61.12;100858.84;5117201;28;1914;-64
2021/08/10 01:30:26;;;;;;;;;;;;;;;20.39;59.40;100858.69;5098924;28;1197;-64
2021/08/10 01:32:52;;;;;;;;;;;;;;;20.86;60.62;100856.09;5082629;28;1244;-57
2021/08/10 01:35:19;;;;;;;;;;;;;;;21.39;60.32;100857.66;5081791;28;1118;-61
2021/08/10 01:37:53;;;;;;;;;;;;;;;21.53;59.74;100854.97;5099495;28;1268;-61
2021/08/10 01:40:19;;;;;;;;;;;;;;;21.72;59.27;100851.31;5117560;28;755;-48
2021/08/10 01:42:50;;;;;;;;;;;;;;;20.81;61.35;100854.22;5082374;28;1106;-61
2021/08/10 01:45:17;;;;;;;;;;;;;;;20.49;61.09;100857.72;5082649;28;1418;-63
2021/08/10 01:47:43;;;;;;;;;;;;;;;20.02;59.08;100854.78;5082368;28;1905;-63
2021/08/10 01:50:12;;;;;;;;;;;;;;;20.27;58.56;100861.06;5074988;28;1295;-45
2021/08/10 01:52:45;;;;;;;;;;;;;;;20.12;56.98;100851.88;5063320;28;1227;-63
2021/08/10 01:55:11;;;;;;;;;;;;;;;20.24;55.56;100856.13;5061877;28;1197;-44
2021/08/10 01:57:38;;;;;;;;;;;;;;;20.21;54.92;100863.06;5078571;28;1102;-64
2021/08/10 02:00:06;;;;;;;;;;;;;;;20.10;55.00;100864.31;5078872;28;1225;-63
2021/08/10 02:02:38;;;;;;;;;;;;;;;20.15;55.98;100855.97;5094541;28;606;-54
2021/08/10 02:05:16;;;;;;;;;;;;;;;20.41;56.62;100855.63;5070341;28;1225;-63
2021/08/10 02:07:43;;;;;;;;;;;;;;;20.65;57.20;100866.59;5082004;28;1902;-62
2021/08/10 02:10:09;;;;;;;;;;;;;;;20.73;58.04;100868.72;5098491;28;838;-62
2021/08/10 02:12:36;;;;;;;;;;;;;;;20.94;58.24;100869.22;5098615;28;1284;-44
2021/08/10 02:15:02;;;;;;;;;;;;;;;21.07;58.32;100872.34;5098220;28;1113;-61
2021/08/10 02:17:39;;;;;;;;;;;;;;;21.12;58.60;100864.78;5099158;28;1268;-64
2021/08/10 02:20:14;;;;;;;;;;;;;;;20.96;59.25;100868.94;5082461;28;1157;-64
2021/08/10 02:22:42;;;;;;;;;;;;;;;20.51;61.16;100870.13;5116304;28;771;-40
2021/08/10 02:25:09;;;;;;;;;;;;;;;20.57;60.37;100870.88;5098078;28;1131;-62
2021/08/10 02:27:53;;;;;;;;;;;;;;;20.02;59.56;100860.28;5082467;28;2020;-47
2021/08/10 02:30:22;;;;;;;;;;;;;;;20.67;61.62;100864.38;5082029;28;1086;-48
2021/08/10 02:32:49;;;;;;;;;;;;;;;21.37;59.74;100874.56;5116918;28;781;-50
2021/08/10 02:35:21;;;;;;;;;;;;;;;21.63;59.09;100867.78;5097537;28;1129;-61
2021/08/10 02:37:46;;;;;;;;;;;;;;;21.48;59.57;100869.69;5098261;28;1126;-60
2021/08/10 02:40:12;;;;;;;;;;;;;;;20.88;61.74;100872.38;5098292;28;1353;-41
2021/08/10 02:42:40;;;;;;;;;;;;;;;20.77;62.33;100871.72;5081651;28;1031;-60
2021/08/10 02:45:06;;;;;;;;;;;;;;;20.49;60.03;100869.59;5080849;28;1205;-61
2021/08/10 02:47:31;;;;;;;;;;;;;;;21.09;60.84;100870.09;5116276;28;1909;-41
2021/08/10 02:49:57;;;;;;;;;;;;;;;21.32;61.14;100876.63;5097271;28;1276;-59
2021/08/10 02:52:23;;;;;;;;;;;;;;;21.53;60.22;100872.41;5098565;28;1273;-41
2021/08/10 02:54:50;;;;;;;;;;;;;;;21.72;58.88;100871.50;5097708;28;836;-60
2021/08/10 02:57:21;;;;;;;;;;;;;;;20.79;59.88;100872.22;5097374;28;832;-41
2021/08/10 02:59:51;;;;;;;;;;;;;;;20.39;59.44;100874.44;5116105;28;736;-60
2021/08/10 03:02:20;;;;;;;;;;;;;;;19.86;58.34;100867.09;5081757;28;1138;-59
2021/08/10 03:04:56;;;;;;;;;;;;;;;20.09;56.91;100869.03;5080488;28;1320;-44
2021/08/10 03:07:25;;;;;;;;;;;;;;;20.29;56.27;100872.66;5116226;28;1917;-55
2021/08/10 03:09:52;;;;;;;;;;;;;;;20.68;55.75;100877.09;5098102;28;760;-46
2021/08/10 03:12:19;;;;;;;;;;;;;;;20.82;56.36;100872.47;5080774;28;1868;-45
2021/08/10 03:14:45;;;;;;;;;;;;;;;20.93;57.32;100877.81;5081342;28;1133;-59
2021/08/10 03:17:10;;;;;;;;;;;;;;;21.09;57.35;100887.50;5081380;28;1106;-44
2021/08/10 03:19:37;;;;;;;;;;;;;;;21.28;57.25;100881.94;5097344;28;1327;-61
2021/08/10 03:22:03;;;;;;;;;;;;;;;21.51;56.89;100887.63;5080710;28;1336;-58
2021/08/10 03:24:28;;;;;;;;;;;;;;;21.36;57.61;100891.47;5077616;28;1152;-47
2021/08/10 03:26:54;;;;;;;;;;;;;;;20.76;59.56;100895.78;5095095;28;1130;-47
2021/08/10 03:29:20;;;;;;;;;;;;;;;20.52;60.82;100901.31;5081327;28;2026;-44
2021/08/10 03:31:45;;;;;;;;;;;;;;;20.38;59.98;100901.22;5081264;28;832;-44
2021/08/10 03:34:15;;;;;;;;;;;;;;;20.79;60.24;100900.69;5081358;28;1229;-47
2021/08/10 03:36:41;;;;;;;;;;;;;;;21.28;58.93;100894.94;5101518;28;1243;-45
2021/08/10 03:39:07;;;;;;;;;;;;;;;21.46;58.25;100896.84;5084356;28;1232;-47
2021/08/10 03:41:33;;;;;;;;;;;;;;;21.47;58.41;100898.47;5101474;28;1448;-44
2021/08/10 03:43:59;;;;;;;;;;;;;;;21.65;57.97;100898.75;5100894;28;835;-44
2021/08/10 03:46:28;;;;;;;;;;;;;;;20.83;60.44;100890.69;5084143;28;1114;-44
2021/08/10 03:48:54;;;;;;;;;;;;;;;20.55;61.53;100894.38;5101169;28;1986;-64
2021/08/10 03:51:20;;;;;;;;;;;;;;;20.26;60.73;100903.59;5100619;28;1212;-46
2021/08/10 03:53:46;;;;;;;;;;;;;;;20.53;61.36;100891.91;5084003;28;2005;-61
2021/08/10 03:56:15;;;;;;;;;;;;;;;21.00;60.34;100895.69;5101001;28;1220;-44
2021/08/10 03:58:45;;;;;;;;;;;;;;;21.35;59.23;100895.38;5100932;28;1379;-58
2021/08/10 04:01:12;;;;;;;;;;;;;;;21.28;59.34;100894.94;5084640;28;1284;-48
2021/08/10 04:03:44;;;;;;;;;;;;;;;21.15;59.57;100891.00;5100712;28;1125;-45
2021/08/10 04:06:09;;;;;;;;;;;;;;;20.77;61.24;100905.69;5082801;28;1222;-44
2021/08/10 04:08:35;;;;;;;;;;;;;;;20.61;60.62;100909.78;5084152;28;1913;-54
2021/08/10 04:11:02;;;;;;;;;;;;;;;20.18;60.22;100907.84;5084026;28;1163;-55
2021/08/10 04:13:29;;;;;;;;;;;;;;;20.63;61.52;100907.53;5100811;28;1169;-44
2021/08/10 04:15:55;;;;;;;;;;;;;;;21.14;60.37;100914.25;5100980;28;1263;-64
2021/08/10 04:18:23;;;;;;;;;;;;;;;21.60;59.22;100919.06;5072116;28;1074;-57
2021/08/10 04:20:49;;;;;;;;;;;;;;;21.40;59.98;100911.88;5093698;28;856;-58
2021/08/10 04:23:14;;;;;;;;;;;;;;;20.91;61.94;100919.56;5118613;28;755;-58
2021/08/10 04:25:41;;;;;;;;;;;;;;;20.73;61.80;100914.88;5099220;28;1321;-57
2021/08/10 04:28:07;;;;;;;;;;;;;;;20.46;59.88;100916.31;5118047;28;2012;-58
2021/08/10 04:30:33;;;;;;;;;;;;;;;20.98;60.74;100914.50;5099831;28;1134;-57
2021/08/10 04:32:59;;;;;;;;;;;;;;;21.38;61.89;100911.38;5100095;28;1157;-57
2021/08/10 04:35:25;;;;;;;;;;;;;;;21.68;60.81;100914.75;5117608;28;970;-58
2021/08/10 04:37:51;;;;;;;;;;;;;;;21.93;60.11;100909.84;5099904;28;1271;-57
2021/08/10 04:40:17;;;;;;;;;;;;;;;20.97;62.95;100912.03;5099563;28;1165;-58
2021/08/10 04:43:05;;;;;;;;;;;;;;;20.84;63.09;100911.66;5115737;28;1342;-59
2021/08/10 04:45:31;;;;;;;;;;;;;;;20.47;61.06;100904.97;5099270;28;1215;-57
2021/08/10 04:47:57;;;;;;;;;;;;;;;20.89;62.60;100908.00;5099325;28;1988;-57
2021/08/10 04:50:23;;;;;;;;;;;;;;;21.59;61.83;100902.72;5098881;28;1094;-58
2021/08/10 04:52:49;;;;;;;;;;;;;;;21.84;61.04;100902.25;5117932;28;760;-59
2021/08/10 04:55:14;;;;;;;;;;;;;;;21.30;62.86;100910.09;5099182;28;1180;-57
2021/08/10 04:57:40;;;;;;;;;;;;;;;21.17;63.58;100916.44;5117219;28;755;-57
2021/08/10 05:00:06;;;;;;;;;;;;;;;21.06;61.80;100917.72;5099579;28;1228;-60
2021/08/10 05:02:37;;;;;;;;;;;;;;;20.84;59.38;100913.59;5082894;28;1225;-57
2021/08/10 05:05:03;;;;;;;;;;;;;;;20.68;58.71;100922.13;5099227;28;1141;-59
2021/08/10 05:07:29;;;;;;;;;;;;;;;21.08;60.58;100915.47;5098801;28;1922;-57
2021/08/10 05:09:56;;;;;;;;;;;;;;;20.95;61.34;100914.28;5099029;28;1117;-59
2021/08/10 05:12:22;;;;;;;;;;;;;;;20.78;61.87;100915.63;5117398;28;791;-54
2021/08/10 05:14:49;;;;;;;;;;;;;;;20.80;63.77;100907.88;5099557;28;1265;-44
2021/08/10 05:17:16;;;;;;;;;;;;;;;21.07;63.77;100906.34;5081597;28;1528;-59
2021/08/10 05:19:42;;;;;;;;;;;;;;;21.05;63.23;100913.31;5098740;28;1232;-62
2021/08/10 05:22:08;;;;;;;;;;;;;;;21.15;62.45;100900.16;5117000;28;743;-62
2021/08/10 05:24:38;;;;;;;;;;;;;;;21.23;63.36;100908.88;5099141;28;1226;-46
2021/08/10 05:27:07;;;;;;;;;;;;;;;21.25;63.23;100904.69;5098530;28;1396;-44
2021/08/10 05:29:32;;;;;;;;;;;;;;;21.33;64.25;100903.16;5116841;28;1966;-60
2021/08/10 05:31:58;;;;;;;;;;;;;;;21.40;64.02;100906.34;5098528;28;1105;-59
2021/08/10 05:34:25;;;;;;;;;;;;;;;21.34;64.38;100904.81;5098295;28;1244;-59
2021/08/10 05:36:51;;;;;;;;;;;;;;;21.33;64.05;100903.16;5097903;28;895;-48
2021/08/10 05:39:17;;;;;;;;;;;;;;;21.36;63.12;100902.53;5097964;28;1407;-58
2021/08/10 05:41:43;;;;;;;;;;;;;;;21.57;63.66;100905.00;5099005;28;1174;-60
2021/08/10 05:44:08;;;;;;;;;;;;;;;21.56;63.36;100900.56;5098683;28;1394;-49
2021/08/10 05:46:34;;;;;;;;;;;;;;;21.40;63.85;100897.25;5098248;28;1224;-59
2021/08/10 05:49:02;;;;;;;;;;;;;;;21.25;65.18;100903.84;5097693;28;2006;-53
2021/08/10 05:51:28;;;;;;;;;;;;;;;21.18;65.34;100895.94;5097783;28;1193;-44
2021/08/10 05:53:53;;;;;;;;;;;;;;;21.28;65.15;100895.78;5116579;28;755;-59
2021/08/10 05:56:19;;;;;;;;;;;;;;;21.31;65.38;100889.63;5116533;28;771;-57
2021/08/10 05:58:46;;;;;;;;;;;;;;;21.18;65.71;100888.47;5097776;28;1227;-44
2021/08/10 06:01:12;;;;;;;;;;;;;;;21.03;65.31;100889.53;5097552;28;1258;-60
2021/08/10 06:03:38;;;;;;;;;;;;;;;20.63;64.60;100897.28;5098666;28;1436;-44
2021/08/10 06:06:04;;;;;;;;;;;;;;;20.40;64.31;100904.53;5097340;28;1268;-57
2021/08/10 06:08:41;;;;;;;;;;;;;;;20.38;63.10;100900.41;5097297;28;1918;-44
2021/08/10 06:11:08;;;;;;;;;;;;;;;20.26;62.92;100892.53;5117077;28;1007;-58
2021/08/10 06:13:36;;;;;;;;;;;;;;;20.10;62.50;100901.00;5081550;28;1467;-44
2021/08/10 06:16:01;;;;;;;;;;;;;;;19.95;62.39;100892.91;5098084;28;1102;-44
2021/08/10 06:18:27;;;;;;;;;;;;;;;19.91;61.97;100891.84;5097898;28;1157;-60
2021/08/10 06:20:53;;;;;;;;;;;;;;;19.86;61.70;100894.69;5115520;28;990;-59
2021/08/10 06:23:22;;;;;;;;;;;;;;;20.11;60.58;100888.88;5098001;28;1241;-45
2021/08/10 06:25:47;;;;;;;;;;;;;;;20.73;58.52;100893.59;5097277;28;2060;-44
2021/08/10 06:28:16;;;;;;;;;;;;;;;21.12;57.55;100886.91;5097961;28;1981;-45
2021/08/10 06:30:41;;;;;;;;;;;;;;;21.14;57.89;100886.59;5097346;28;1220;-50
2021/08/10 06:33:07;;;;;;;;;;;;;;;21.18;58.19;100885.72;5098342;28;1241;-43
2021/08/10 06:35:33;;;;;;;;;;;;;;;20.86;59.40;100889.28;5114485;28;1102;-64
2021/08/10 06:37:59;;;;;;;;;;;;;;;20.75;60.00;100891.38;5097537;28;1109;-45
2021/08/10 06:40:24;;;;;;;;;;;;;;;20.56;59.76;100885.78;5115455;28;724;-48
2021/08/10 06:42:51;;;;;;;;;;;;;;;20.00;58.55;100870.78;5098120;28;1248;-43
2021/08/10 06:45:18;;;;;;;;;;;;;;;20.70;60.34;100874.03;5097801;28;1129;-44
2021/08/10 06:47:44;;;;;;;;;;;;;;;21.01;61.52;100872.44;5097784;28;1893;-64
2021/08/10 06:50:10;;;;;;;;;;;;;;;21.47;61.73;100879.09;5097262;28;1129;-47
2021/08/10 06:52:36;;;;;;;;;;;;;;;21.38;63.47;100875.41;5097457;28;1237;-44
2021/08/10 06:55:01;;;;;;;;;;;;;;;21.29;64.49;100868.94;5115599;28;756;-46
2021/08/10 06:57:27;;;;;;;;;;;;;;;20.97;61.00;100867.81;5098109;28;1118;-43
2021/08/10 06:59:54;;;;;;;;;;;;;;;20.55;59.62;100872.28;5097146;28;1318;-54
2021/08/10 07:02:20;;;;;;;;;;;;;;;20.98;60.45;100863.91;5101230;28;1338;-53
2021/08/10 07:04:46;;;;;;;;;;;;;;;20.87;60.55;100868.78;5101168;28;1150;-57
2021/08/10 07:07:11;;;;;;;;;;;;;;;20.66;59.37;100862.72;5101014;28;1129;-45
2021/08/10 07:09:39;;;;;;;;;;;;;;;20.63;57.06;100864.13;5100850;28;1901;-64
2021/08/10 07:12:05;;;;;;;;;;;;;;;20.46;56.18;100864.66;5101507;28;1212;-61
2021/08/10 07:14:35;;;;;;;;;;;;;;;20.60;55.95;100858.41;5085188;28;1201;-62
2021/08/10 07:17:03;;;;;;;;;;;;;;;20.76;56.42;100868.16;5101520;28;1149;-44
2021/08/10 07:19:31;;;;;;;;;;;;;;;21.00;56.97;100858.94;5101138;28;1361;-62
2021/08/10 07:21:58;;;;;;;;;;;;;;;21.08;57.72;100858.22;5101046;28;1169;-62
2021/08/10 07:24:27;;;;;;;;;;;;;;;21.18;57.86;100863.59;5101377;28;1149;-63
2021/08/10 07:26:53;;;;;;;;;;;;;;;21.03;58.79;100855.56;5101496;28;1185;-45
2021/08/10 07:29:22;;;;;;;;;;;;;;;20.78;60.08;100860.34;5118619;28;1971;-62
2021/08/10 07:31:52;;;;;;;;;;;;;;;20.65;59.44;100866.59;5100776;28;2190;-59
2021/08/10 07:34:19;;;;;;;;;;;;;;;20.16;58.33;100866.72;5101527;28;1121;-62
2021/08/10 07:36:45;;;;;;;;;;;;;;;20.57;61.67;100875.59;5100481;28;1373;-44
2021/08/10 07:39:11;;;;;;;;;;;;;;;21.47;60.76;100870.00;5100970;28;1208;-50
2021/08/10 07:41:36;;;;;;;;;;;;;;;21.65;61.88;100868.31;5118747;28;748;-61
2021/08/10 07:44:06;;;;;;;;;;;;;;;21.41;64.08;100871.22;5100526;28;1586;-61
2021/08/10 07:46:38;;;;;;;;;;;;;;;21.24;63.82;100875.38;5101016;28;1153;-59
2021/08/10 07:49:03;;;;;;;;;;;;;;;20.94;59.35;100869.22;5100772;28;1993;-47
2021/08/10 07:51:29;;;;;;;;;;;;;;;21.04;59.87;100871.00;5100198;28;1129;-62
2021/08/10 07:53:55;;;;;;;;;;;;;;;21.24;61.78;100875.38;5100302;28;1381;-62
2021/08/10 07:56:20;;;;;;;;;;;;;;;21.44;62.10;100878.91;5100812;28;1232;-44
2021/08/10 07:58:46;;;;;;;;;;;;;;;21.61;61.77;100878.34;5100689;28;1125;-59
2021/08/10 08:01:12;;;;;;;;;;;;;;;21.49;61.02;100885.16;5118683;28;763;-44
2021/08/10 08:03:38;;;;;;;;;;;;;;;21.66;59.58;100867.19;5100093;28;1349;-43
2021/08/10 08:06:04;;;;;;;;;;;;;;;21.09;60.64;100870.91;5100131;28;1319;-63
2021/08/10 08:08:30;;;;;;;;;;;;;;;20.98;60.67;100863.91;5099545;28;1970;-62
2021/08/10 08:10:56;;;;;;;;;;;;;;;20.54;59.48;100862.34;5100473;28;1340;-48
2021/08/10 08:13:27;;;;;;;;;;;;;;;20.65;60.01;100866.59;5099408;28;2023;-63
2021/08/10 08:15:53;;;;;;;;;;;;;;;20.95;60.71;100864.53;5100032;28;1193;-62
2021/08/10 08:18:20;;;;;;;;;;;;;;;21.20;59.56;100860.50;5100486;28;1239;-56
2021/08/10 08:20:46;;;;;;;;;;;;;;;21.29;58.82;100868.94;5099447;28;1132;-63
2021/08/10 08:23:13;;;;;;;;;;;;;;;21.23;58.71;100868.19;5099720;28;1355;-60
2021/08/10 08:25:38;;;;;;;;;;;;;;;20.88;59.73;100864.09;5118239;28;1099;-44
2021/08/10 08:28:08;;;;;;;;;;;;;;;20.68;60.42;100860.53;5118336;28;1914;-62
2021/08/10 08:30:39;;;;;;;;;;;;;;;20.46;59.22;100853.59;5099686;28;1296;-63
2021/08/10 08:33:05;;;;;;;;;;;;;;;20.04;59.02;100862.75;5099794;28;1138;-63
2021/08/10 08:35:31;;;;;;;;;;;;;;;20.91;59.78;100858.78;5117447;28;997;-60
2021/08/10 08:37:56;;;;;;;;;;;;;;;21.07;60.45;100855.75;5117589;28;767;-43
2021/08/10 08:40:23;;;;;;;;;;;;;;;21.51;60.79;100849.72;5099829;28;1244;-55
2021/08/10 08:42:48;;;;;;;;;;;;;;;21.28;63.05;100854.28;5083276;28;1205;-63
2021/08/10 08:45:14;;;;;;;;;;;;;;;21.15;64.17;100855.06;5099503;28;1367;-63
2021/08/10 08:47:40;;;;;;;;;;;;;;;20.92;60.63;100837.50;5099590;28;1909;-44
2021/08/10 08:50:07;;;;;;;;;;;;;;;20.68;59.04;100842.00;5082747;28;1169;-46
2021/08/10 08:52:34;;;;;;;;;;;;;;;21.29;61.22;100852.34;5083127;28;1469;-63
2021/08/10 08:55:01;;;;;;;;;;;;;;;21.45;61.73;100834.34;5082808;28;1563;-60
2021/08/10 08:57:28;;;;;;;;;;;;;;;21.63;61.21;100838.19;5099892;28;1240;-57
2021/08/10 08:59:54;;;;;;;;;;;;;;;21.58;60.39;100834.69;5098947;28;1263;-58
2021/08/10 09:02:19;;;;;;;;;;;;;;;21.80;58.99;100829.25;5082831;28;1246;-57
2021/08/10 09:04:46;;;;;;;;;;;;;;;21.17;60.32;100823.22;5098730;28;1284;-57
2021/08/10 09:07:13;;;;;;;;;;;;;;;21.04;60.39;100829.53;5099022;28;1158;-57
2021/08/10 09:09:39;;;;;;;;;;;;;;;20.62;59.64;100829.38;5117381;28;1976;-57
2021/08/10 09:12:17;;;;;;;;;;;;;;;20.22;59.83;100826.06;5098927;28;1273;-57
2021/08/10 09:14:49;;;;;;;;;;;;;;;20.83;60.61;100818.84;5098843;28;1220;-58
2021/08/10 09:17:19;;;;;;;;;;;;;;;21.13;59.27;100813.91;5099667;28;1106;-52
2021/08/10 09:19:47;;;;;;;;;;;;;;;21.23;58.73;100801.81;5098209;28;1980;-57
2021/08/10 09:22:16;;;;;;;;;;;;;;;21.26;58.47;100803.16;5098827;28;1281;-58
2021/08/10 09:24:46;;;;;;;;;;;;;;;20.85;59.62;100805.53;5077257;28;1377;-58
2021/08/10 09:27:21;;;;;;;;;;;;;;;20.79;59.64;100795.69;5078704;28;1170;-58
2021/08/10 09:29:47;;;;;;;;;;;;;;;20.15;58.72;100800.78;5078436;28;1913;-58
2021/08/10 09:32:16;;;;;;;;;;;;;;;20.63;60.45;100797.03;5062373;28;1361;-58
2021/08/10 09:34:41;;;;;;;;;;;;;;;21.07;59.06;100797.69;5081046;28;1126;-42
2021/08/10 09:37:14;;;;;;;;;;;;;;;21.04;58.89;100788.06;5098747;28;1272;-57
2021/08/10 09:39:40;;;;;;;;;;;;;;;21.03;58.94;100787.25;5116730;28;783;-58
2021/08/10 09:42:11;;;;;;;;;;;;;;;20.90;59.29;100790.81;5098111;28;1381;-44
2021/08/10 09:44:59;;;;;;;;;;;;;;;20.84;59.53;100794.78;5098150;28;763;-42
2021/08/10 09:47:35;;;;;;;;;;;;;;;20.20;58.32;100795.16;5098324;28;1905;-57
2021/08/10 09:50:00;;;;;;;;;;;;;;;20.60;59.98;100797.63;5116228;28;1009;-45
2021/08/10 09:52:29;;;;;;;;;;;;;;;20.74;60.03;100801.28;5081354;28;1166;-56
2021/08/10 09:55:07;;;;;;;;;;;;;;;21.04;58.83;100801.88;5098322;28;1196;-60
2021/08/10 09:57:33;;;;;;;;;;;;;;;21.12;58.25;100803.94;5097658;28;876;-50
2021/08/10 09:59:59;;;;;;;;;;;;;;;20.90;58.87;100793.56;5081303;28;1180;-43
2021/08/10 10:02:25;;;;;;;;;;;;;;;20.80;59.35;100779.91;5080936;28;1233;-43
2021/08/10 10:04:51;;;;;;;;;;;;;;;20.63;58.26;100780.44;5115932;28;989;-54
2021/08/10 10:07:17;;;;;;;;;;;;;;;20.08;58.41;100778.22;5098043;28;1217;-58
2021/08/10 10:09:48;;;;;;;;;;;;;;;20.65;60.43;100789.22;5098110;28;1918;-58
2021/08/10 10:12:19;;;;;;;;;;;;;;;21.25;60.52;100780.25;5098351;28;1205;-58
2021/08/10 10:14:45;;;;;;;;;;;;;;;21.39;61.57;100783.00;5098325;28;1193;-58
2021/08/10 10:17:11;;;;;;;;;;;;;;;21.24;63.33;100781.34;5116481;28;767;-53
2021/08/10 10:19:40;;;;;;;;;;;;;;;21.15;62.55;100775.72;5097144;28;974;-58
2021/08/10 10:22:14;;;;;;;;;;;;;;;20.70;59.19;100786.44;5116082;28;779;-58
2021/08/10 10:24:42;;;;;;;;;;;;;;;21.29;60.54;100778.47;5116135;28;1118;-58
2021/08/10 10:27:08;;;;;;;;;;;;;;;21.47;61.26;100778.69;5097953;28;764;-58
2021/08/10 10:29:33;;;;;;;;;;;;;;;21.53;61.32;100778.34;5097376;28;1906;-58
2021/08/10 10:31:59;;;;;;;;;;;;;;;21.75;59.70;100776.78;5116233;28;906;-42
2021/08/10 10:34:24;;;;;;;;;;;;;;;21.59;59.24;100767.97;5115994;28;970;-58
2021/08/10 10:36:50;;;;;;;;;;;;;;;;;;5118036;28;759;-59
2021/08/10 10:39:28;;;;;;;;;;;;;;;20.97;60.18;100757.22;5120479;28;771;-58
2021/08/10 10:41:54;;;;;;;;;;;;;;;20.47;59.46;100760.53;5120002;28;783;-58
2021/08/10 10:44:38;;;;;;;;;;;;;;;20.39;59.43;100755.69;5102120;28;1029;-58
2021/08/10 10:47:25;;;;;;;;;;;;;;;20.97;59.79;100754.47;5120128;28;775;-58
2021/08/10 10:49:50;;;;;;;;;;;;;;;21.11;58.85;100747.03;5102354;28;1914;-58
2021/08/10 10:52:16;;;;;;;;;;;;;;;21.29;57.91;100752.78;5120058;28;818;-58
2021/08/10 10:54:44;;;;;;;;;;;;;;;20.95;59.05;100753.97;5120202;28;747;-44
2021/08/10 10:57:33;;;;;;;;;;;;;;;20.80;59.26;100757.81;5119612;28;763;-58
2021/08/10 11:00:05;;;;;;;;;;;;;;;20.48;58.20;100756.63;5119882;28;866;-58
2021/08/10 11:02:31;;;;;;;;;;;;;;;20.48;59.32;100760.25;5119859;28;843;-42
2021/08/10 11:05:05;;;;;;;;;;;;;;;20.77;59.29;100752.88;5101382;28;1017;-58
2021/08/10 11:07:35;;;;;;;;;;;;;;;20.96;58.39;100744.56;5119301;28;1914;-57
2021/08/10 11:10:01;;;;;;;;;;;;;;;20.96;58.21;100745.38;5119694;28;847;-56
2021/08/10 11:12:33;;;;;;;;;;;;;;;21.02;57.88;100743.31;5119421;28;747;-59
2021/08/10 11:14:58;;;;;;;;;;;;;;;20.81;58.62;100749.22;5119846;28;819;-58
2021/08/10 11:17:23;;;;;;;;;;;;;;;20.80;57.97;100739.31;5119837;28;859;-58
2021/08/10 11:19:49;;;;;;;;;;;;;;;20.08;58.07;100740.41;5118681;28;938;-58
2021/08/10 11:22:15;;;;;;;;;;;;;;;20.59;60.53;100736.00;5119185;28;755;-58
2021/08/10 11:24:40;;;;;;;;;;;;;;;21.28;60.60;100735.38;5119521;28;1119;-58
2021/08/10 11:27:24;;;;;;;;;;;;;;;21.48;61.58;100734.13;5119182;28;791;-58
2021/08/10 11:29:50;;;;;;;;;;;;;;;21.23;63.59;100726.34;5119093;28;1918;-58
2021/08/10 11:32:34;;;;;;;;;;;;;;;21.03;62.18;100731.16;5119842;28;859;-59
2021/08/10 11:35:20;;;;;;;;;;;;;;;20.82;58.58;100728.75;5118447;28;989;-58
2021/08/10 11:38:03;;;;;;;;;;;;;;;21.23;60.42;100729.13;5084026;28;1302;-58
2021/08/10 11:40:36;;;;;;;;;;;;;;;21.84;62.09;100725.09;5118899;28;751;-61
2021/08/10 11:43:01;;;;;;;;;;;;;;;22.04;63.42;100726.59;5118969;28;851;-58
2021/08/10 11:45:27;;;;;;;;;;;;;;;21.63;66.35;100723.91;5119226;28;747;-58
2021/08/10 11:47:58;;;;;;;;;;;;;;;21.39;65.56;100727.66;5117645;28;1905;-57
2021/08/10 11:50:28;;;;;;;;;;;;;;;20.78;59.91;100718.63;5118226;28;970;-58
2021/08/10 11:52:53;;;;;;;;;;;;;;;20.49;59.77;100720.44;5100960;28;756;-58
2021/08/10 11:55:19;;;;;;;;;;;;;;;20.82;58.77;100714.94;5118835;28;815;-59
2021/08/10 11:57:54;;;;;;;;;;;;;;;20.75;57.45;100717.28;5118928;28;776;-53
2021/08/10 12:00:20;;;;;;;;;;;;;;;20.95;56.17;100709.72;5118589;28;768;-58
2021/08/10 12:02:46;;;;;;;;;;;;;;;21.05;56.08;100701.25;5118578;28;764;-58
2021/08/10 12:05:12;;;;;;;;;;;;;;;21.19;56.33;100699.28;5099846;28;1029;-41
2021/08/10 12:07:50;;;;;;;;;;;;;;;21.43;56.29;100698.25;5118521;28;1886;-55
2021/08/10 12:10:27;;;;;;;;;;;;;;;21.03;57.88;100697.97;5118043;28;795;-59
2021/08/10 12:12:53;;;;;;;;;;;;;;;20.84;59.08;100696.09;5118192;28;835;-52
2021/08/10 12:15:39;;;;;;;;;;;;;;;20.59;58.52;100693.75;5118639;28;818;-55
2021/08/10 12:18:04;;;;;;;;;;;;;;;20.64;58.60;100688.97;5118240;28;768;-59
2021/08/10 12:20:30;;;;;;;;;;;;;;;21.05;59.81;100692.94;5117656;28;962;-58
2021/08/10 12:23:02;;;;;;;;;;;;;;;21.06;59.56;100680.78;5118453;28;811;-53
2021/08/10 12:25:27;;;;;;;;;;;;;;;21.35;58.88;100687.94;5117709;28;1286;-60
2021/08/10 12:28:00;;;;;;;;;;;;;;;20.92;60.32;100680.75;5118169;28;1969;-61
2021/08/10 12:30:26;;;;;;;;;;;;;;;20.96;60.41;100679.03;5118121;28;823;-57
2021/08/10 12:32:51;;;;;;;;;;;;;;;20.54;59.36;100680.03;5117968;28;764;-47
2021/08/10 12:35:21;;;;;;;;;;;;;;;20.21;60.44;100688.31;5117853;28;965;-57
2021/08/10 12:37:48;;;;;;;;;;;;;;;20.98;61.01;100687.00;5118012;28;826;-49
2021/08/10 12:40:18;;;;;;;;;;;;;;;21.39;59.71;100677.88;5099921;28;907;-58
2021/08/10 12:42:43;;;;;;;;;;;;;;;21.38;59.36;100690.09;5099614;28;1043;-41
2021/08/10 12:45:09;;;;;;;;;;;;;;;20.98;60.98;100692.53;5099384;28;879;-58
2021/08/10 12:47:35;;;;;;;;;;;;;;;21.10;60.49;100687.31;5118136;28;1902;-58
2021/08/10 12:50:02;;;;;;;;;;;;;;;20.54;59.23;100688.31;5099225;28;1264;-62
2021/08/10 12:52:40;;;;;;;;;;;;;;;20.31;58.89;100690.91;5117367;28;875;-48
2021/08/10 12:55:06;;;;;;;;;;;;;;;20.85;61.43;100689.44;5117574;28;770;-59